MMMX/MEX METAR and TAF weather

Enter ICAO airport designator
Station Type Date Time Source
MMMX METAR 2022/01/29 10:44 UTC NOAA

MMMX 291044Z 06005KT 10SM OVC025 09/02 A3040 NOSIG RMK 8/5// LWR SC BINOVC


Station Type Date Time Source
MMMX Decoded METAR 2022/01/29 10:44 UTC NOAA

Mexico City / Licenci, Mexico (MMMX) 19-26N 099-06W
Jan 29, 2022 - 05:44 AM EST / 2022.01.29 1044 UTC
Wind: from the ENE (060 degrees) at 6 MPH (5 KT):0
Visibility: 10 mile(s):0
Sky conditions: overcast
Temperature: 48 F (9 C)
Dew Point: 35 F (2 C)
Relative Humidity: 61%
Pressure (altimeter): 30.4 in. Hg (1029 hPa)
ob: MMMX 291044Z 06005KT 10SM OVC025 09/02 A3040 NOSIG RMK 8/5// LWR SC BINOVC
cycle: 10

Station Type Date Time Source
MMMX TAF 2022/01/29 12:21 UTC NOAA

TAF MMMX 291119Z 2912/3018 06005KT 6SM HZ OVC025 TX22/2921Z TN08/2912Z
TEMPO 2912/2915 OVC015
FM291800 03010KT 6SM HZ SCT020 BKN080
FM300300 03005KT 6SM HZ SCT020 BKN080
TEMPO 3012/3015 3SM BR BKN015

Example: see airport list